sensor_id;sensor_type;location;lat;lon;timestamp;pressure;altitude;pressure_sealevel;temperature;humidity
10668;BME280;5382;42.136;24.796;2024-01-10T00:02:06;101267.09;;;0.17;100.00
10668;BME280;5382;42.136;24.796;2024-01-10T00:04:33;101269.63;;;0.25;100.00
10668;BME280;5382;42.136;24.796;2024-01-10T00:07:01;101271.34;;;0.27;100.00
10668;BME280;5382;42.136;24.796;2024-01-10T00:09:30;101292.19;;;0.22;100.00
10668;BME280;5382;42.136;24.796;2024-01-10T00:11:57;101281.75;;;0.26;100.00
10668;BME280;5382;42.136;24.796;2024-01-10T00:14:24;101288.75;;;0.24;100.00
10668;BME280;5382;42.136;24.796;2024-01-10T00:16:51;101279.19;;;0.22;100.00
10668;BME280;5382;42.136;24.796;2024-01-10T00:19:18;101284.41;;;0.19;100.00
10668;BME280;5382;42.136;24.796;2024-01-10T00:21:45;101286.16;;;0.17;100.00
10668;BME280;5382;42.136;24.796;2024-01-10T00:24:13;101283.53;;;0.24;100.00
10668;BME280;5382;42.136;24.796;2024-01-10T00:26:40;101288.78;;;0.14;100.00
10668;BME280;5382;42.136;24.796;2024-01-10T00:29:07;101287.03;;;0.21;100.00
10668;BME280;5382;42.136;24.796;2024-01-10T00:31:34;101287.81;;;0.28;100.00
10668;BME280;5382;42.136;24.796;2024-01-10T00:34:01;101302.66;;;0.16;100.00
10668;BME280;5382;42.136;24.796;2024-01-10T00:36:28;101294.84;;;0.15;100.00
10668;BME280;5382;42.136;24.796;2024-01-10T00:38:55;101303.63;;;0.03;100.00
10668;BME280;5382;42.136;24.796;2024-01-10T00:41:26;101303.53;;;0.12;100.00
10668;BME280;5382;42.136;24.796;2024-01-10T00:43:53;101299.19;;;0.14;100.00
10668;BME280;5382;42.136;24.796;2024-01-10T00:46:20;101305.31;;;0.09;100.00
10668;BME280;5382;42.136;24.796;2024-01-10T00:48:47;101312.34;;;-0.03;100.00
10668;BME280;5382;42.136;24.796;2024-01-10T00:51:14;101309.63;;;0.10;100.00
10668;BME280;5382;42.136;24.796;2024-01-10T00:53:41;101305.34;;;-0.01;100.00
10668;BME280;5382;42.136;24.796;2024-01-10T00:56:08;101283.72;;;-0.07;100.00
10668;BME280;5382;42.136;24.796;2024-01-10T00:58:38;101311.38;;;0.08;100.00
10668;BME280;5382;42.136;24.796;2024-01-10T01:01:05;101303.56;;;0.11;100.00
10668;BME280;5382;42.136;24.796;2024-01-10T01:03:32;101294.03;;;0.11;100.00
10668;BME280;5382;42.136;24.796;2024-01-10T01:05:59;101300.09;;;0.09;100.00
10668;BME280;5382;42.136;24.796;2024-01-10T01:08:26;101294.03;;;0.07;100.00
10668;BME280;5382;42.136;24.796;2024-01-10T01:10:53;101294.94;;;-0.01;100.00
10668;BME280;5382;42.136;24.796;2024-01-10T01:13:20;101301.94;;;-0.07;100.00
10668;BME280;5382;42.136;24.796;2024-01-10T01:15:49;101297.59;;;-0.05;100.00
10668;BME280;5382;42.136;24.796;2024-01-10T01:18:15;101308.00;;;-0.05;100.00
10668;BME280;5382;42.136;24.796;2024-01-10T01:20:43;101294.13;;;-0.03;100.00
10668;BME280;5382;42.136;24.796;2024-01-10T01:23:09;101297.53;;;0.04;100.00
10668;BME280;5382;42.136;24.796;2024-01-10T01:25:36;101310.50;;;0.12;100.00
10668;BME280;5382;42.136;24.796;2024-01-10T01:28:04;101301.84;;;0.07;100.00
10668;BME280;5382;42.136;24.796;2024-01-10T01:30:31;101306.97;;;0.20;100.00
10668;BME280;5382;42.136;24.796;2024-01-10T01:32:59;101295.84;;;0.00;100.00
10668;BME280;5382;42.136;24.796;2024-01-10T01:35:30;101307.00;;;0.14;100.00
10668;BME280;5382;42.136;24.796;2024-01-10T01:37:57;101310.47;;;0.16;100.00
10668;BME280;5382;42.136;24.796;2024-01-10T01:40:24;101304.38;;;0.24;100.00
10668;BME280;5382;42.136;24.796;2024-01-10T01:42:52;101313.84;;;0.28;100.00
10668;BME280;5382;42.136;24.796;2024-01-10T01:45:19;101309.50;;;0.30;100.00
10668;BME280;5382;42.136;24.796;2024-01-10T01:47:47;101313.91;;;0.21;100.00
10668;BME280;5382;42.136;24.796;2024-01-10T01:50:16;101304.34;;;0.27;100.00
10668;BME280;5382;42.136;24.796;2024-01-10T01:52:43;101301.75;;;0.20;100.00
10668;BME280;5382;42.136;24.796;2024-01-10T01:55:10;101304.38;;;0.24;100.00
10668;BME280;5382;42.136;24.796;2024-01-10T01:57:38;101290.44;;;0.23;100.00
10668;BME280;5382;42.136;24.796;2024-01-10T02:00:07;101293.03;;;0.29;100.00
10668;BME280;5382;42.136;24.796;2024-01-10T02:02:35;101300.88;;;0.25;100.00
10668;BME280;5382;42.136;24.796;2024-01-10T02:05:06;101297.44;;;0.18;100.00
10668;BME280;5382;42.136;24.796;2024-01-10T02:07:35;101296.56;;;0.19;100.00
10668;BME280;5382;42.136;24.796;2024-01-10T02:10:02;101286.13;;;0.20;100.00
10668;BME280;5382;42.136;24.796;2024-01-10T02:12:31;101289.63;;;0.21;100.00
10668;BME280;5382;42.136;24.796;2024-01-10T02:14:58;101288.81;;;0.11;100.00
10668;BME280;5382;42.136;24.796;2024-01-10T02:17:25;101287.94;;;0.14;100.00
10668;BME280;5382;42.136;24.796;2024-01-10T02:20:08;101290.50;;;0.15;100.00
10668;BME280;5382;42.136;24.796;2024-01-10T02:22:36;101279.16;;;0.27;100.00
10668;BME280;5382;42.136;24.796;2024-01-10T02:25:06;101278.31;;;0.27;100.00
10668;BME280;5382;42.136;24.796;2024-01-10T02:27:33;101276.56;;;0.29;100.00
10668;BME280;5382;42.136;24.796;2024-01-10T02:30:02;101275.63;;;0.34;100.00
10668;BME280;5382;42.136;24.796;2024-01-10T02:32:29;101280.00;;;0.34;100.00
10668;BME280;5382;42.136;24.796;2024-01-10T02:34:56;101269.63;;;0.25;100.00
10668;BME280;5382;42.136;24.796;2024-01-10T02:37:22;101280.88;;;0.31;100.00
10668;BME280;5382;42.136;24.796;2024-01-10T02:39:49;101277.34;;;0.37;100.00
10668;BME280;5382;42.136;24.796;2024-01-10T02:42:18;101258.31;;;0.32;100.00
10668;BME280;5382;42.136;24.796;2024-01-10T02:44:45;101277.34;;;0.41;100.00
10668;BME280;5382;42.136;24.796;2024-01-10T02:47:12;101276.41;;;0.46;100.00
10668;BME280;5382;42.136;24.796;2024-01-10T02:49:39;101278.19;;;0.42;100.00
10668;BME280;5382;42.136;24.796;2024-01-10T02:52:06;101284.22;;;0.47;100.00
10668;BME280;5382;42.136;24.796;2024-01-10T02:54:33;101276.38;;;0.50;100.00
10668;BME280;5382;42.136;24.796;2024-01-10T02:57:00;101279.81;;;0.55;100.00
10668;BME280;5382;42.136;24.796;2024-01-10T02:59:28;101262.53;;;0.45;100.00
10668;BME280;5382;42.136;24.796;2024-01-10T03:01:55;101279.88;;;0.48;100.00
10668;BME280;5382;42.136;24.796;2024-01-10T03:04:22;101280.00;;;0.34;100.00
10668;BME280;5382;42.136;24.796;2024-01-10T03:06:49;101278.22;;;0.39;100.00
10668;BME280;5382;42.136;24.796;2024-01-10T03:09:16;101269.53;;;0.41;100.00
10668;BME280;5382;42.136;24.796;2024-01-10T03:11:43;101275.56;;;0.47;100.00
10668;BME280;5382;42.136;24.796;2024-01-10T03:14:11;101273.88;;;0.38;100.00
10668;BME280;5382;42.136;24.796;2024-01-10T03:16:39;101273.00;;;0.39;100.00
10668;BME280;5382;42.136;24.796;2024-01-10T03:19:06;101260.00;;;0.36;100.00
10668;BME280;5382;42.136;24.796;2024-01-10T03:21:33;101271.25;;;0.38;100.00
10668;BME280;5382;42.136;24.796;2024-01-10T03:24:01;101263.41;;;0.41;100.00
10668;BME280;5382;42.136;24.796;2024-01-10T03:26:28;101241.00;;;0.26;100.00
10668;BME280;5382;42.136;24.796;2024-01-10T03:28:56;101266.09;;;0.35;100.00
10668;BME280;5382;42.136;24.796;2024-01-10T03:31:23;101268.75;;;0.27;100.00
10668;BME280;5382;42.136;24.796;2024-01-10T03:33:52;101271.28;;;0.33;100.00
10668;BME280;5382;42.136;24.796;2024-01-10T03:36:20;101269.59;;;0.28;100.00
10668;BME280;5382;42.136;24.796;2024-01-10T03:38:47;101273.06;;;0.30;100.00
10668;BME280;5382;42.136;24.796;2024-01-10T03:41:14;101274.84;;;0.25;100.00
10668;BME280;5382;42.136;24.796;2024-01-10T03:43:43;101276.53;;;0.32;100.00
10668;BME280;5382;42.136;24.796;2024-01-10T03:46:10;101274.78;;;0.31;100.00
10668;BME280;5382;42.136;24.796;2024-01-10T03:48:37;101257.50;;;0.20;100.00
10668;BME280;5382;42.136;24.796;2024-01-10T03:51:14;101267.00;;;0.28;100.00
10668;BME280;5382;42.136;24.796;2024-01-10T03:53:41;101275.59;;;0.36;100.00
10668;BME280;5382;42.136;24.796;2024-01-10T03:56:09;101271.34;;;0.29;100.00
10668;BME280;5382;42.136;24.796;2024-01-10T03:58:36;101273.97;;;0.24;100.00
10668;BME280;5382;42.136;24.796;2024-01-10T04:01:06;101280.00;;;0.28;100.00
10668;BME280;5382;42.136;24.796;2024-01-10T04:03:33;101278.19;;;0.40;100.00
10668;BME280;5382;42.136;24.796;2024-01-10T04:06:00;101271.34;;;0.29;100.00
10668;BME280;5382;42.136;24.796;2024-01-10T04:08:29;101277.34;;;0.35;100.00
10668;BME280;5382;42.136;24.796;2024-01-10T04:10:56;101280.78;;;0.42;100.00
10668;BME280;5382;42.136;24.796;2024-01-10T04:13:23;101286.81;;;0.47;100.00
10668;BME280;5382;42.136;24.796;2024-01-10T04:15:50;101285.06;;;0.52;100.00
10668;BME280;5382;42.136;24.796;2024-01-10T04:18:17;101282.44;;;0.52;100.00
10668;BME280;5382;42.136;24.796;2024-01-10T04:20:44;101287.66;;;0.52;100.00
10668;BME280;5382;42.136;24.796;2024-01-10T04:23:13;101285.91;;;0.51;100.00
10668;BME280;5382;42.136;24.796;2024-01-10T04:25:41;101295.53;;;0.43;100.00
10668;BME280;5382;42.136;24.796;2024-01-10T04:28:10;101288.53;;;0.48;100.00
10668;BME280;5382;42.136;24.796;2024-01-10T04:30:37;101296.31;;;0.51;100.00
10668;BME280;5382;42.136;24.796;2024-01-10T04:33:04;101297.16;;;0.56;100.00
10668;BME280;5382;42.136;24.796;2024-01-10T04:35:31;101292.81;;;0.60;100.00
10668;BME280;5382;42.136;24.796;2024-01-10T04:37:59;101304.00;;;0.68;100.00
10668;BME280;5382;42.136;24.796;2024-01-10T04:40:26;101304.00;;;0.68;100.00
10668;BME280;5382;42.136;24.796;2024-01-10T04:42:55;101304.88;;;0.69;100.00
10668;BME280;5382;42.136;24.796;2024-01-10T04:45:21;101310.94;;;0.69;100.00
10668;BME280;5382;42.136;24.796;2024-01-10T04:47:48;101316.16;;;0.71;100.00
10668;BME280;5382;42.136;24.796;2024-01-10T04:50:15;101316.19;;;0.68;100.00
10668;BME280;5382;42.136;24.796;2024-01-10T04:52:42;101321.41;;;0.61;100.00
10668;BME280;5382;42.136;24.796;2024-01-10T04:55:09;101319.72;;;0.56;100.00
10668;BME280;5382;42.136;24.796;2024-01-10T04:57:36;101323.22;;;0.53;100.00
10668;BME280;5382;42.136;24.796;2024-01-10T05:00:06;101335.38;;;0.51;100.00
10668;BME280;5382;42.136;24.796;2024-01-10T05:02:34;101332.88;;;0.40;100.00
10668;BME280;5382;42.136;24.796;2024-01-10T05:05:01;101324.22;;;0.37;100.00
10668;BME280;5382;42.136;24.796;2024-01-10T05:07:29;101332.88;;;0.37;100.00
10668;BME280;5382;42.136;24.796;2024-01-10T05:09:56;101332.91;;;0.33;100.00
10668;BME280;5382;42.136;24.796;2024-01-10T05:12:23;101326.91;;;0.25;100.00
10668;BME280;5382;42.136;24.796;2024-01-10T05:14:50;101312.25;;;0.08;100.00
10668;BME280;5382;42.136;24.796;2024-01-10T05:17:19;101328.63;;;0.29;100.00
10668;BME280;5382;42.136;24.796;2024-01-10T05:19:47;101323.47;;;0.15;100.00
10668;BME280;5382;42.136;24.796;2024-01-10T05:22:14;101342.53;;;0.25;100.00
10668;BME280;5382;42.136;24.796;2024-01-10T05:24:41;101333.84;;;0.22;100.00
10668;BME280;5382;42.136;24.796;2024-01-10T05:27:08;101343.50;;;0.08;100.00
10668;BME280;5382;42.136;24.796;2024-01-10T05:29:36;101335.72;;;0.04;100.00
10668;BME280;5382;42.136;24.796;2024-01-10T05:32:04;101345.25;;;0.03;100.00
10668;BME280;5382;42.136;24.796;2024-01-10T05:34:33;101341.75;;;0.03;100.00
10668;BME280;5382;42.136;24.796;2024-01-10T05:37:00;101340.06;;;0.00;100.00
10668;BME280;5382;42.136;24.796;2024-01-10T05:39:27;101349.56;;;0.04;100.00
10668;BME280;5382;42.136;24.796;2024-01-10T05:41:54;101345.22;;;0.11;100.00
10668;BME280;5382;42.136;24.796;2024-01-10T05:44:21;101356.50;;;0.02;100.00
10668;BME280;5382;42.136;24.796;2024-01-10T05:46:48;101351.31;;;0.08;100.00
10668;BME280;5382;42.136;24.796;2024-01-10T05:49:14;101328.75;;;0.04;100.00
10668;BME280;5382;42.136;24.796;2024-01-10T05:51:43;101347.75;;;0.21;100.00
10668;BME280;5382;42.136;24.796;2024-01-10T05:54:11;101338.19;;;0.27;100.00
10668;BME280;5382;42.136;24.796;2024-01-10T05:56:38;101338.19;;;0.20;100.00
10668;BME280;5382;42.136;24.796;2024-01-10T05:59:05;101346.06;;;0.11;100.00
10668;BME280;5382;42.136;24.796;2024-01-10T06:01:32;101345.22;;;0.05;100.00
10668;BME280;5382;42.136;24.796;2024-01-10T06:03:59;101351.31;;;0.08;100.00
10668;BME280;5382;42.136;24.796;2024-01-10T06:06:26;101348.69;;;0.08;100.00
10668;BME280;5382;42.136;24.796;2024-01-10T06:08:55;101357.41;;;0.01;100.00
10668;BME280;5382;42.136;24.796;2024-01-10T06:11:22;101351.38;;;-0.07;100.00
10668;BME280;5382;42.136;24.796;2024-01-10T06:13:49;101325.44;;;-0.23;100.00
10668;BME280;5382;42.136;24.796;2024-01-10T06:16:16;101371.28;;;-0.02;100.00
10668;BME280;5382;42.136;24.796;2024-01-10T06:18:43;101376.50;;;-0.02;100.00
10668;BME280;5382;42.136;24.796;2024-01-10T06:21:10;101377.38;;;0.01;100.00
10668;BME280;5382;42.136;24.796;2024-01-10T06:23:37;101379.03;;;0.09;100.00
10668;BME280;5382;42.136;24.796;2024-01-10T06:26:05;101384.28;;;0.06;100.00
10668;BME280;5382;42.136;24.796;2024-01-10T06:28:32;101388.56;;;0.16;100.00
10668;BME280;5382;42.136;24.796;2024-01-10T06:31:00;101401.56;;;0.19;100.00
10668;BME280;5382;42.136;24.796;2024-01-10T06:33:26;101385.09;;;0.13;100.00
10668;BME280;5382;42.136;24.796;2024-01-10T06:35:53;101407.59;;;0.23;100.00
10668;BME280;5382;42.136;24.796;2024-01-10T06:38:21;101398.09;;;0.17;100.00
10668;BME280;5382;42.136;24.796;2024-01-10T06:40:48;101408.44;;;0.31;100.00
10668;BME280;5382;42.136;24.796;2024-01-10T06:43:17;101411.06;;;0.25;100.00
10668;BME280;5382;42.136;24.796;2024-01-10T06:45:44;101409.38;;;0.10;100.00
10668;BME280;5382;42.136;24.796;2024-01-10T06:48:11;101409.41;;;0.13;100.00
10668;BME280;5382;42.136;24.796;2024-01-10T06:50:39;101409.44;;;-0.01;100.00
10668;BME280;5382;42.136;24.796;2024-01-10T06:53:06;101405.09;;;0.03;100.00
10668;BME280;5382;42.136;24.796;2024-01-10T06:55:33;101412.94;;;0.00;100.00
10668;BME280;5382;42.136;24.796;2024-01-10T06:58:00;101411.19;;;-0.04;100.00
10668;BME280;5382;42.136;24.796;2024-01-10T07:00:29;101421.59;;;-0.04;100.00
10668;BME280;5382;42.136;24.796;2024-01-10T07:02:57;101417.22;;;0.04;100.00
10668;BME280;5382;42.136;24.796;2024-01-10T07:05:24;101419.00;;;-0.01;100.00
10668;BME280;5382;42.136;24.796;2024-01-10T07:07:50;101420.72;;;-0.02;100.00
10668;BME280;5382;42.136;24.796;2024-01-10T07:10:17;101428.56;;;-0.09;100.00
10668;BME280;5382;42.136;24.796;2024-01-10T07:12:44;101435.50;;;-0.02;100.00
10668;BME280;5382;42.136;24.796;2024-01-10T07:15:12;101438.06;;;-0.04;100.00
10668;BME280;5382;42.136;24.796;2024-01-10T07:17:40;101437.22;;;-0.06;100.00
10668;BME280;5382;42.136;24.796;2024-01-10T07:20:09;101444.16;;;-0.06;100.00
10668;BME280;5382;42.136;24.796;2024-01-10T07:22:37;101446.75;;;-0.02;100.00
10668;BME280;5382;42.136;24.796;2024-01-10T07:25:07;101449.38;;;0.00;100.00
10668;BME280;5382;42.136;24.796;2024-01-10T07:27:34;101444.97;;;0.05;100.00
10668;BME280;5382;42.136;24.796;2024-01-10T07:30:04;101449.28;;;0.18;100.00
10668;BME280;5382;42.136;24.796;2024-01-10T07:32:35;101456.19;;;0.24;100.00
10668;BME280;5382;42.136;24.796;2024-01-10T07:35:05;101455.31;;;0.30;100.00
10668;BME280;5382;42.136;24.796;2024-01-10T07:37:34;101466.53;;;0.41;100.00
10668;BME280;5382;42.136;24.796;2024-01-10T07:40:02;101470.06;;;0.28;100.00
10668;BME280;5382;42.136;24.796;2024-01-10T07:42:30;101470.13;;;0.18;100.00
10668;BME280;5382;42.136;24.796;2024-01-10T07:44:57;101470.94;;;0.27;100.00
10668;BME280;5382;42.136;24.796;2024-01-10T07:47:24;101475.25;;;0.34;100.00
10668;BME280;5382;42.136;24.796;2024-01-10T07:49:51;101474.41;;;0.29;100.00
10668;BME280;5382;42.136;24.796;2024-01-10T07:52:20;101478.75;;;0.31;100.00
10668;BME280;5382;42.136;24.796;2024-01-10T07:54:47;101489.13;;;0.33;100.00
10668;BME280;5382;42.136;24.796;2024-01-10T07:57:14;101483.00;;;0.43;100.00
10668;BME280;5382;42.136;24.796;2024-01-10T07:59:43;101477.00;;;0.29;100.00
10668;BME280;5382;42.136;24.796;2024-01-10T08:02:10;101477.91;;;0.21;100.00
10668;BME280;5382;42.136;24.796;2024-01-10T08:04:38;101484.84;;;0.22;100.00
10668;BME280;5382;42.136;24.796;2024-01-10T08:07:05;101483.13;;;0.15;100.00
10668;BME280;5382;42.136;24.796;2024-01-10T08:09:33;101479.66;;;0.19;100.00
10668;BME280;5382;42.136;24.796;2024-01-10T08:12:00;101491.78;;;0.20;100.00
10668;BME280;5382;42.136;24.796;2024-01-10T08:14:27;101483.13;;;0.08;100.00
10668;BME280;5382;42.136;24.796;2024-01-10T08:16:54;101484.06;;;-0.03;100.00
10668;BME280;5382;42.136;24.796;2024-01-10T08:19:23;101485.78;;;0.02;100.00
10668;BME280;5382;42.136;24.796;2024-01-10T08:21:51;101483.16;;;0.09;100.00
10668;BME280;5382;42.136;24.796;2024-01-10T08:24:18;101482.25;;;0.19;100.00
10668;BME280;5382;42.136;24.796;2024-01-10T08:26:48;101480.53;;;0.17;100.00
10668;BME280;5382;42.136;24.796;2024-01-10T08:29:17;101475.31;;;0.17;100.00
10668;BME280;5382;42.136;24.796;2024-01-10T08:31:44;101484.81;;;0.26;100.00
10668;BME280;5382;42.136;24.796;2024-01-10T08:34:11;101468.28;;;0.37;100.00
10668;BME280;5382;42.136;24.796;2024-01-10T08:36:38;101476.03;;;0.48;100.00
10668;BME280;5382;42.136;24.796;2024-01-10T08:39:05;101473.38;;;0.59;100.00
10668;BME280;5382;42.136;24.796;2024-01-10T08:41:32;101471.59;;;0.69;100.00
10668;BME280;5382;42.136;24.796;2024-01-10T08:44:01;101472.41;;;0.77;100.00
10668;BME280;5382;42.136;24.796;2024-01-10T08:46:28;101477.50;;;0.95;100.00
10668;BME280;5382;42.136;24.796;2024-01-10T08:48:55;101482.66;;;1.04;100.00
10668;BME280;5382;42.136;24.796;2024-01-10T08:51:22;101466.97;;;1.11;100.00
10668;BME280;5382;42.136;24.796;2024-01-10T08:53:48;101466.97;;;1.14;100.00
10668;BME280;5382;42.136;24.796;2024-01-10T08:56:15;101466.84;;;1.26;100.00
10668;BME280;5382;42.136;24.796;2024-01-10T08:58:43;101458.94;;;1.34;100.00
10668;BME280;5382;42.136;24.796;2024-01-10T09:01:11;101459.78;;;1.40;100.00
10668;BME280;5382;42.136;24.796;2024-01-10T09:03:38;101439.03;;;1.29;100.00
10668;BME280;5382;42.136;24.796;2024-01-10T09:06:05;101464.03;;;1.49;100.00
10668;BME280;5382;42.136;24.796;2024-01-10T09:08:35;101456.22;;;1.50;100.00
10668;BME280;5382;42.136;24.796;2024-01-10T09:11:02;101458.72;;;1.61;100.00
10668;BME280;5382;42.136;24.796;2024-01-10T09:13:29;101458.63;;;1.69;100.00
10668;BME280;5382;42.136;24.796;2024-01-10T09:15:56;101460.38;;;1.68;100.00
10668;BME280;5382;42.136;24.796;2024-01-10T09:18:25;101451.47;;;1.88;100.00
10668;BME280;5382;42.136;24.796;2024-01-10T09:20:53;101448.91;;;1.83;100.00
10668;BME280;5382;42.136;24.796;2024-01-10T09:23:20;101458.56;;;1.75;100.00
10668;BME280;5382;42.136;24.796;2024-01-10T09:25:47;101445.47;;;1.78;100.00
10668;BME280;5382;42.136;24.796;2024-01-10T09:28:14;101442.81;;;1.84;100.00
10668;BME280;5382;42.136;24.796;2024-01-10T09:30:42;101441.75;;;2.01;100.00
10668;BME280;5382;42.136;24.796;2024-01-10T09:33:09;101440.56;;;2.26;100.00
10668;BME280;5382;42.136;24.796;2024-01-10T09:35:37;101437.69;;;2.46;100.00
10668;BME280;5382;42.136;24.796;2024-01-10T09:38:05;101400.38;;;2.38;100.00
10668;BME280;5382;42.136;24.796;2024-01-10T09:40:31;101430.13;;;2.26;100.00
10668;BME280;5382;42.136;24.796;2024-01-10T09:42:57;101434.44;;;2.29;100.00
10668;BME280;5382;42.136;24.796;2024-01-10T09:45:26;101427.56;;;2.25;100.00
10668;BME280;5382;42.136;24.796;2024-01-10T09:47:56;101418.88;;;2.23;100.00
10668;BME280;5382;42.136;24.796;2024-01-10T09:50:23;101424.91;;;2.26;100.00
10668;BME280;5382;42.136;24.796;2024-01-10T09:52:53;101429.50;;;2.07;100.00
10668;BME280;5382;42.136;24.796;2024-01-10T09:55:21;101428.00;;;1.86;100.00
10668;BME280;5382;42.136;24.796;2024-01-10T09:57:49;101419.19;;;1.96;100.00
10668;BME280;5382;42.136;24.796;2024-01-10T10:00:16;101409.69;;;1.89;100.00
10668;BME280;5382;42.136;24.796;2024-01-10T10:02:46;101411.97;;;2.17;100.00
10668;BME280;5382;42.136;24.796;2024-01-10T10:05:15;101405.09;;;2.10;100.00
10668;BME280;5382;42.136;24.796;2024-01-10T10:07:46;101410.38;;;2.07;100.00
10668;BME280;5382;42.136;24.796;2024-01-10T10:10:15;101392.84;;;2.15;100.00
10668;BME280;5382;42.136;24.796;2024-01-10T10:12:43;101393.41;;;2.37;100.00
10668;BME280;5382;42.136;24.796;2024-01-10T10:15:12;101396.91;;;2.36;100.00
10668;BME280;5382;42.136;24.796;2024-01-10T10:17:40;101399.25;;;2.56;100.00
10668;BME280;5382;42.136;24.796;2024-01-10T10:20:13;101392.00;;;2.73;100.00
10668;BME280;5382;42.136;24.796;2024-01-10T10:22:51;101397.44;;;2.59;100.00
10668;BME280;5382;42.136;24.796;2024-01-10T10:25:26;101392.44;;;2.46;100.00
10668;BME280;5382;42.136;24.796;2024-01-10T10:27:54;101397.66;;;2.46;100.00
10668;BME280;5382;42.136;24.796;2024-01-10T10:30:21;101388.06;;;2.46;100.00
10668;BME280;5382;42.136;24.796;2024-01-10T10:32:48;101390.47;;;2.60;100.00
10668;BME280;5382;42.136;24.796;2024-01-10T10:35:15;101380.69;;;2.74;100.00
10668;BME280;5382;42.136;24.796;2024-01-10T10:37:42;101376.38;;;2.70;100.00
10668;BME280;5382;42.136;24.796;2024-01-10T10:40:09;101371.09;;;2.75;100.00
10668;BME280;5382;42.136;24.796;2024-01-10T10:42:42;101378.97;;;2.72;100.00
10668;BME280;5382;42.136;24.796;2024-01-10T10:45:13;101372.59;;;2.88;100.00
10668;BME280;5382;42.136;24.796;2024-01-10T10:47:43;101371.50;;;3.01;100.00
10668;BME280;5382;42.136;24.796;2024-01-10T10:50:13;101365.94;;;3.21;100.00
10668;BME280;5382;42.136;24.796;2024-01-10T10:52:42;101362.91;;;3.43;100.00
10668;BME280;5382;42.136;24.796;2024-01-10T10:55:14;101350.84;;;3.81;100.00
10668;BME280;5382;42.136;24.796;2024-01-10T10:57:43;101351.81;;;4.17;100.00
10668;BME280;5382;42.136;24.796;2024-01-10T11:00:12;101349.16;;;4.57;100.00
10668;BME280;5382;42.136;24.796;2024-01-10T11:02:41;101351.28;;;5.44;100.00
10668;BME280;5382;42.136;24.796;2024-01-10T11:05:09;101350.94;;;5.58;100.00
10668;BME280;5382;42.136;24.796;2024-01-10T11:07:36;101346.06;;;6.07;100.00
10668;BME280;5382;42.136;24.796;2024-01-10T11:10:06;101347.91;;;6.61;97.67
10668;BME280;5382;42.136;24.796;2024-01-10T11:12:59;101336.22;;;6.70;95.94
10668;BME280;5382;42.136;24.796;2024-01-10T11:15:47;101323.16;;;7.18;93.36
10668;BME280;5382;42.136;24.796;2024-01-10T11:18:36;101329.66;;;8.05;87.05
10668;BME280;5382;42.136;24.796;2024-01-10T11:21:18;101316.56;;;8.90;83.81
10668;BME280;5382;42.136;24.796;2024-01-10T11:23:51;101315.66;;;9.53;76.99
10668;BME280;5382;42.136;24.796;2024-01-10T11:26:19;101302.88;;;10.00;74.09
10668;BME280;5382;42.136;24.796;2024-01-10T11:28:48;101303.94;;;10.70;71.74
10668;BME280;5382;42.136;24.796;2024-01-10T11:31:15;101291.94;;;10.81;69.16
10668;BME280;5382;42.136;24.796;2024-01-10T11:33:42;101285.31;;;11.07;66.17
10668;BME280;5382;42.136;24.796;2024-01-10T11:36:12;101291.56;;;10.35;67.34
10668;BME280;5382;42.136;24.796;2024-01-10T11:38:48;101291.38;;;10.20;69.33
10668;BME280;5382;42.136;24.796;2024-01-10T11:41:20;101280.13;;;11.05;64.50
10668;BME280;5382;42.136;24.796;2024-01-10T11:46:49;101278.94;;;13.01;58.43
10668;BME280;5382;42.136;24.796;2024-01-10T11:49:18;101266.06;;;12.79;55.88
10668;BME280;5382;42.136;24.796;2024-01-10T11:51:46;101263.22;;;12.82;56.29
10668;BME280;5382;42.136;24.796;2024-01-10T11:54:35;101262.53;;;13.23;55.21
10668;BME280;5382;42.136;24.796;2024-01-10T11:57:02;101253.19;;;13.61;53.74
10668;BME280;5382;42.136;24.796;2024-01-10T11:59:29;101249.47;;;13.63;53.93
10668;BME280;5382;42.136;24.796;2024-01-10T12:01:59;101246.16;;;14.28;50.36
10668;BME280;5382;42.136;24.796;2024-01-10T12:04:26;101240.00;;;14.28;49.33
10668;BME280;5382;42.136;24.796;2024-01-10T12:06:55;101249.16;;;13.82;50.77
10668;BME280;5382;42.136;24.796;2024-01-10T12:09:23;101234.75;;;13.99;49.53
10668;BME280;5382;42.136;24.796;2024-01-10T12:11:50;101234.09;;;13.54;50.87
10668;BME280;5382;42.136;24.796;2024-01-10T12:14:17;101225.34;;;13.09;54.20
10668;BME280;5382;42.136;24.796;2024-01-10T12:16:45;101238.50;;;12.36;53.65
10668;BME280;5382;42.136;24.796;2024-01-10T12:19:14;101228.16;;;11.36;60.66
10668;BME280;5382;42.136;24.796;2024-01-10T12:21:41;101239.03;;;10.97;65.32
10668;BME280;5382;42.136;24.796;2024-01-10T12:24:08;101233.69;;;10.46;69.88
10668;BME280;5382;42.136;24.796;2024-01-10T12:26:35;101232.81;;;10.09;73.15
10668;BME280;5382;42.136;24.796;2024-01-10T12:29:06;101234.97;;;8.86;80.68
10668;BME280;5382;42.136;24.796;2024-01-10T12:31:33;101230.84;;;8.36;85.15
10668;BME280;5382;42.136;24.796;2024-01-10T12:34:00;101237.09;;;7.68;90.26
10668;BME280;5382;42.136;24.796;2024-01-10T12:36:29;101232.41;;;7.29;93.14
10668;BME280;5382;42.136;24.796;2024-01-10T12:38:56;101232.13;;;6.88;94.81
10668;BME280;5382;42.136;24.796;2024-01-10T12:41:23;101232.38;;;6.55;94.91
10668;BME280;5382;42.136;24.796;2024-01-10T12:43:52;101228.50;;;6.92;96.54
10668;BME280;5382;42.136;24.796;2024-01-10T12:46:20;101217.72;;;7.47;95.23
10668;BME280;5382;42.136;24.796;2024-01-10T12:48:58;101229.84;;;7.96;91.63
10668;BME280;5382;42.136;24.796;2024-01-10T12:51:27;101218.28;;;8.21;88.85
10668;BME280;5382;42.136;24.796;2024-01-10T12:53:56;101215.50;;;8.68;89.40
10668;BME280;5382;42.136;24.796;2024-01-10T12:56:24;101220.03;;;8.64;89.29
10668;BME280;5382;42.136;24.796;2024-01-10T12:58:51;101226.19;;;8.65;88.90